sensor_id;sensor_type;location;lat;lon;timestamp;pressure;altitude;pressure_sealevel;temperature;humidity
19457;BME280;9867;48.094;11.478;2023-03-15T00:01:48;94455.13;;;3.92;100.00
19457;BME280;9867;48.094;11.478;2023-03-15T00:04:18;94453.81;;;3.96;100.00
19457;BME280;9867;48.094;11.478;2023-03-15T00:06:47;94459.91;;;3.87;100.00
19457;BME280;9867;48.094;11.478;2023-03-15T00:09:14;94458.50;;;3.84;100.00
19457;BME280;9867;48.094;11.478;2023-03-15T00:11:40;94461.94;;;3.91;100.00
19457;BME280;9867;48.094;11.478;2023-03-15T00:14:07;94458.13;;;4.10;100.00
19457;BME280;9867;48.094;11.478;2023-03-15T00:16:34;94457.66;;;4.06;100.00
19457;BME280;9867;48.094;11.478;2023-03-15T00:19:00;94471.06;;;4.00;100.00
19457;BME280;9867;48.094;11.478;2023-03-15T00:21:26;94474.41;;;4.01;100.00
19457;BME280;9867;48.094;11.478;2023-03-15T00:23:55;94467.97;;;3.90;100.00
19457;BME280;9867;48.094;11.478;2023-03-15T00:26:22;94478.81;;;3.84;100.00
19457;BME280;9867;48.094;11.478;2023-03-15T00:28:48;94453.16;;;3.41;100.00
19457;BME280;9867;48.094;11.478;2023-03-15T00:31:17;94455.84;;;3.17;100.00
19457;BME280;9867;48.094;11.478;2023-03-15T00:33:44;94445.31;;;2.74;100.00
19457;BME280;9867;48.094;11.478;2023-03-15T00:36:11;94435.09;;;2.60;100.00
19457;BME280;9867;48.094;11.478;2023-03-15T00:38:39;94434.63;;;2.56;100.00
19457;BME280;9867;48.094;11.478;2023-03-15T00:41:08;94434.00;;;2.54;100.00
19457;BME280;9867;48.094;11.478;2023-03-15T00:43:35;94426.25;;;2.56;100.00
19457;BME280;9867;48.094;11.478;2023-03-15T00:46:03;94433.59;;;2.73;100.00
19457;BME280;9867;48.094;11.478;2023-03-15T00:48:30;94438.59;;;2.51;100.00
19457;BME280;9867;48.094;11.478;2023-03-15T00:51:05;94437.31;;;2.55;100.00
19457;BME280;9867;48.094;11.478;2023-03-15T00:53:33;94446.19;;;2.51;100.00
19457;BME280;9867;48.094;11.478;2023-03-15T00:56:03;94458.16;;;2.18;100.00
19457;BME280;9867;48.094;11.478;2023-03-15T00:58:31;94502.63;;;1.88;100.00
19457;BME280;9867;48.094;11.478;2023-03-15T01:00:57;94470.44;;;0.83;100.00
19457;BME280;9867;48.094;11.478;2023-03-15T01:03:24;94510.03;;;0.82;100.00
19457;BME280;9867;48.094;11.478;2023-03-15T01:05:50;94513.16;;;0.76;100.00
19457;BME280;9867;48.094;11.478;2023-03-15T01:08:17;94519.63;;;0.71;100.00
19457;BME280;9867;48.094;11.478;2023-03-15T01:10:46;94505.81;;;0.57;100.00
19457;BME280;9867;48.094;11.478;2023-03-15T01:13:12;94498.09;;;0.58;100.00
19457;BME280;9867;48.094;11.478;2023-03-15T01:15:44;94480.16;;;0.61;100.00
19457;BME280;9867;48.094;11.478;2023-03-15T01:18:11;94468.34;;;0.70;100.00
19457;BME280;9867;48.094;11.478;2023-03-15T01:20:42;94473.38;;;0.62;100.00
19457;BME280;9867;48.094;11.478;2023-03-15T01:23:09;94470.75;;;0.80;100.00
19457;BME280;9867;48.094;11.478;2023-03-15T01:25:35;94450.75;;;0.94;100.00
19457;BME280;9867;48.094;11.478;2023-03-15T01:28:02;94458.19;;;1.04;100.00
19457;BME280;9867;48.094;11.478;2023-03-15T01:30:28;94449.31;;;1.00;100.00
19457;BME280;9867;48.094;11.478;2023-03-15T01:32:56;94443.19;;;0.94;100.00
19457;BME280;9867;48.094;11.478;2023-03-15T01:35:22;94437.03;;;1.05;100.00
19457;BME280;9867;48.094;11.478;2023-03-15T01:37:49;94453.59;;;0.99;100.00
19457;BME280;9867;48.094;11.478;2023-03-15T01:40:16;94461.47;;;0.88;100.00
19457;BME280;9867;48.094;11.478;2023-03-15T01:42:51;94466.19;;;0.83;100.00
19457;BME280;9867;48.094;11.478;2023-03-15T01:45:52;94463.19;;;0.96;100.00
19457;BME280;9867;48.094;11.478;2023-03-15T01:48:24;94460.69;;;0.96;100.00
19457;BME280;9867;48.094;11.478;2023-03-15T01:50:53;94454.50;;;0.82;100.00
19457;BME280;9867;48.094;11.478;2023-03-15T01:53:21;94459.25;;;0.85;100.00
19457;BME280;9867;48.094;11.478;2023-03-15T01:55:49;94469.03;;;0.96;100.00
19457;BME280;9867;48.094;11.478;2023-03-15T01:58:24;94484.34;;;0.95;100.00
19457;BME280;9867;48.094;11.478;2023-03-15T02:00:59;94480.19;;;0.78;100.00
19457;BME280;9867;48.094;11.478;2023-03-15T02:03:36;94502.66;;;0.97;100.00
19457;BME280;9867;48.094;11.478;2023-03-15T02:06:08;94489.72;;;1.00;100.00
19457;BME280;9867;48.094;11.478;2023-03-15T02:08:49;94489.72;;;1.00;100.00
19457;BME280;9867;48.094;11.478;2023-03-15T02:11:19;94478.66;;;0.85;100.00
19457;BME280;9867;48.094;11.478;2023-03-15T02:13:53;94484.34;;;0.95;100.00
19457;BME280;9867;48.094;11.478;2023-03-15T02:16:22;94500.63;;;1.00;100.00
19457;BME280;9867;48.094;11.478;2023-03-15T02:18:56;94496.88;;;1.13;100.00
19457;BME280;9867;48.094;11.478;2023-03-15T02:21:34;94499.06;;;1.08;100.00
19457;BME280;9867;48.094;11.478;2023-03-15T02:24:16;94514.25;;;1.16;100.00
19457;BME280;9867;48.094;11.478;2023-03-15T02:26:49;94517.56;;;1.16;100.00
19457;BME280;9867;48.094;11.478;2023-03-15T02:29:19;94520.56;;;1.20;100.00
19457;BME280;9867;48.094;11.478;2023-03-15T02:31:53;94519.44;;;1.22;100.00
19457;BME280;9867;48.094;11.478;2023-03-15T02:34:24;94542.97;;;1.23;100.00
19457;BME280;9867;48.094;11.478;2023-03-15T02:36:52;94540.75;;;1.12;100.00
19457;BME280;9867;48.094;11.478;2023-03-15T02:39:21;94541.88;;;1.17;100.00
19457;BME280;9867;48.094;11.478;2023-03-15T02:41:49;94542.97;;;1.23;100.00
19457;BME280;9867;48.094;11.478;2023-03-15T02:44:26;94552.78;;;1.26;100.00
19457;BME280;9867;48.094;11.478;2023-03-15T02:46:58;94557.69;;;1.27;100.00
19457;BME280;9867;48.094;11.478;2023-03-15T02:49:31;94560.47;;;1.08;100.00
19457;BME280;9867;48.094;11.478;2023-03-15T02:51:58;94581.28;;;1.02;100.00
19457;BME280;9867;48.094;11.478;2023-03-15T02:54:25;94608.81;;;0.87;100.00
19457;BME280;9867;48.094;11.478;2023-03-15T02:56:52;94607.97;;;0.79;100.00
19457;BME280;9867;48.094;11.478;2023-03-15T02:59:19;94618.34;;;0.67;100.00
19457;BME280;9867;48.094;11.478;2023-03-15T03:01:46;94634.81;;;0.54;100.00
19457;BME280;9867;48.094;11.478;2023-03-15T03:04:13;94638.13;;;0.54;100.00
19457;BME280;9867;48.094;11.478;2023-03-15T03:06:39;94649.59;;;0.49;100.00
19457;BME280;9867;48.094;11.478;2023-03-15T03:09:10;94681.44;;;0.50;100.00
19457;BME280;9867;48.094;11.478;2023-03-15T03:11:41;94670.38;;;0.43;100.00
19457;BME280;9867;48.094;11.478;2023-03-15T03:14:07;94684.88;;;0.41;100.00
19457;BME280;9867;48.094;11.478;2023-03-15T03:16:34;94684.28;;;0.29;100.00
19457;BME280;9867;48.094;11.478;2023-03-15T03:19:08;94684.22;;;0.39;100.00
19457;BME280;9867;48.094;11.478;2023-03-15T03:21:38;94689.97;;;0.31;100.00
19457;BME280;9867;48.094;11.478;2023-03-15T03:24:10;94704.69;;;0.18;100.00
19457;BME280;9867;48.094;11.478;2023-03-15T03:26:40;94712.03;;;0.11;100.00
19457;BME280;9867;48.094;11.478;2023-03-15T03:29:12;94723.19;;;0.09;100.00
19457;BME280;9867;48.094;11.478;2023-03-15T03:31:43;94729.81;;;0.10;100.00
19457;BME280;9867;48.094;11.478;2023-03-15T03:34:10;94743.81;;;0.22;100.00
19457;BME280;9867;48.094;11.478;2023-03-15T03:36:40;94743.34;;;0.09;100.00
19457;BME280;9867;48.094;11.478;2023-03-15T03:39:07;94757.03;;;0.06;100.00
19457;BME280;9867;48.094;11.478;2023-03-15T03:41:35;94772.81;;;0.08;100.00
19457;BME280;9867;48.094;11.478;2023-03-15T03:44:01;94775.34;;;0.08;100.00
19457;BME280;9867;48.094;11.478;2023-03-15T03:46:31;94771.47;;;0.14;100.00
19457;BME280;9867;48.094;11.478;2023-03-15T03:49:00;94782.59;;;0.21;100.00
19457;BME280;9867;48.094;11.478;2023-03-15T03:51:30;94796.03;;;0.12;100.00
19457;BME280;9867;48.094;11.478;2023-03-15T03:53:59;94802.41;;;0.06;100.00
19457;BME280;9867;48.094;11.478;2023-03-15T03:56:25;94818.63;;;0.04;100.00
19457;BME280;9867;48.094;11.478;2023-03-15T03:58:52;94823.66;;;0.04;100.00
19457;BME280;9867;48.094;11.478;2023-03-15T04:01:25;94819.28;;;0.06;100.00
19457;BME280;9867;48.094;11.478;2023-03-15T04:03:53;94823.09;;;0.10;100.00
19457;BME280;9867;48.094;11.478;2023-03-15T04:06:22;94837.19;;;0.03;100.00
19457;BME280;9867;48.094;11.478;2023-03-15T04:08:49;94841.31;;;0.04;100.00
19457;BME280;9867;48.094;11.478;2023-03-15T04:11:36;94856.88;;;-0.01;100.00
19457;BME280;9867;48.094;11.478;2023-03-15T04:14:06;94851.34;;;-0.14;100.00
19457;BME280;9867;48.094;11.478;2023-03-15T04:16:32;94869.78;;;-0.14;100.00
19457;BME280;9867;48.094;11.478;2023-03-15T04:19:02;94864.59;;;-0.12;100.00
19457;BME280;9867;48.094;11.478;2023-03-15T04:21:31;94883.84;;;-0.11;100.00
19457;BME280;9867;48.094;11.478;2023-03-15T04:24:12;94881.72;;;-0.16;100.00
19457;BME280;9867;48.094;11.478;2023-03-15T04:27:03;94892.06;;;-0.09;100.00
19457;BME280;9867;48.094;11.478;2023-03-15T04:29:42;94883.84;;;-0.11;100.00
19457;BME280;9867;48.094;11.478;2023-03-15T04:32:29;94898.56;;;-0.07;100.00
19457;BME280;9867;48.094;11.478;2023-03-15T04:35:14;94897.63;;;-0.06;100.00
19457;BME280;9867;48.094;11.478;2023-03-15T04:37:52;94908.09;;;-0.01;100.00
19457;BME280;9867;48.094;11.478;2023-03-15T04:40:37;94913.41;;;-0.04;100.00
19457;BME280;9867;48.094;11.478;2023-03-15T04:43:36;94928.53;;;-0.04;100.00
19457;BME280;9867;48.094;11.478;2023-03-15T04:46:25;94932.78;;;-0.14;100.00
19457;BME280;9867;48.094;11.478;2023-03-15T04:49:12;94940.75;;;-0.18;100.00
19457;BME280;9867;48.094;11.478;2023-03-15T04:52:02;94945.25;;;-0.03;100.00
19457;BME280;9867;48.094;11.478;2023-03-15T04:54:47;94965.56;;;-0.14;100.00
19457;BME280;9867;48.094;11.478;2023-03-15T04:57:34;94960.50;;;-0.14;100.00
19457;BME280;9867;48.094;11.478;2023-03-15T05:00:19;94959.59;;;-0.22;100.00
19457;BME280;9867;48.094;11.478;2023-03-15T05:03:18;94972.63;;;-0.27;100.00
19457;BME280;9867;48.094;11.478;2023-03-15T05:05:53;94970.38;;;-0.30;100.00
19457;BME280;9867;48.094;11.478;2023-03-15T05:08:38;94995.44;;;-0.28;100.00
19457;BME280;9867;48.094;11.478;2023-03-15T05:11:20;94979.13;;;-0.24;100.00
19457;BME280;9867;48.094;11.478;2023-03-15T05:14:03;94988.09;;;-0.03;100.00
19457;BME280;9867;48.094;11.478;2023-03-15T05:16:45;94992.09;;;-0.10;100.00
19457;BME280;9867;48.094;11.478;2023-03-15T05:19:31;94995.25;;;0.12;100.00
19457;BME280;9867;48.094;11.478;2023-03-15T05:22:38;94997.13;;;-0.10;100.00
19457;BME280;9867;48.094;11.478;2023-03-15T05:25:07;95003.72;;;0.01;100.00
19457;BME280;9867;48.094;11.478;2023-03-15T05:27:56;95012.91;;;-0.17;100.00
19457;BME280;9867;48.094;11.478;2023-03-15T05:30:34;95018.88;;;-0.18;100.00
19457;BME280;9867;48.094;11.478;2023-03-15T05:33:08;95018.91;;;-0.09;100.00
19457;BME280;9867;48.094;11.478;2023-03-15T05:35:47;95022.97;;;0.21;100.00
19457;BME280;9867;48.094;11.478;2023-03-15T05:38:47;95043.31;;;-0.09;100.00
19457;BME280;9867;48.094;11.478;2023-03-15T05:41:27;95038.13;;;-0.17;100.00
19457;BME280;9867;48.094;11.478;2023-03-15T05:44:13;95040.66;;;-0.08;100.00
19457;BME280;9867;48.094;11.478;2023-03-15T05:47:00;95044.22;;;-0.10;100.00
19457;BME280;9867;48.094;11.478;2023-03-15T05:49:47;95045.41;;;-0.14;100.00
19457;BME280;9867;48.094;11.478;2023-03-15T05:52:23;95068.50;;;-0.09;100.00
19457;BME280;9867;48.094;11.478;2023-03-15T05:55:08;95066.41;;;-0.04;100.00
19457;BME280;9867;48.094;11.478;2023-03-15T05:58:13;95080.59;;;-0.03;100.00
19457;BME280;9867;48.094;11.478;2023-03-15T06:01:00;95092.13;;;-0.10;100.00
19457;BME280;9867;48.094;11.478;2023-03-15T06:03:47;95100.22;;;-0.07;100.00
19457;BME280;9867;48.094;11.478;2023-03-15T06:06:19;95094.50;;;-0.18;100.00
19457;BME280;9867;48.094;11.478;2023-03-15T06:08:46;95100.22;;;-0.16;100.00
19457;BME280;9867;48.094;11.478;2023-03-15T06:11:12;95097.97;;;-0.10;100.00
19457;BME280;9867;48.094;11.478;2023-03-15T06:13:39;95103.94;;;-0.01;100.00
19457;BME280;9867;48.094;11.478;2023-03-15T06:16:13;95109.63;;;0.01;100.00
19457;BME280;9867;48.094;11.478;2023-03-15T06:18:43;95114.69;;;0.01;100.00
19457;BME280;9867;48.094;11.478;2023-03-15T06:21:10;95123.19;;;0.00;100.00
19457;BME280;9867;48.094;11.478;2023-03-15T06:23:37;95117.34;;;0.19;100.00
19457;BME280;9867;48.094;11.478;2023-03-15T06:26:04;95132.19;;;0.31;100.00
19457;BME280;9867;48.094;11.478;2023-03-15T06:28:31;95116.44;;;0.76;100.00
19457;BME280;9867;48.094;11.478;2023-03-15T06:31:04;95131.25;;;0.61;100.00
19457;BME280;9867;48.094;11.478;2023-03-15T06:33:36;95140.16;;;0.46;100.00
19457;BME280;9867;48.094;11.478;2023-03-15T06:36:03;95139.06;;;0.68;100.00
19457;BME280;9867;48.094;11.478;2023-03-15T06:38:31;95142.66;;;0.65;100.00
19457;BME280;9867;48.094;11.478;2023-03-15T06:40:57;95141.81;;;0.75;100.00
19457;BME280;9867;48.094;11.478;2023-03-15T06:43:27;95146.47;;;0.89;100.00
19457;BME280;9867;48.094;11.478;2023-03-15T06:45:53;95159.91;;;0.80;100.00
19457;BME280;9867;48.094;11.478;2023-03-15T06:48:21;95151.97;;;0.55;100.00
19457;BME280;9867;48.094;11.478;2023-03-15T06:50:48;95172.94;;;0.65;100.00
19457;BME280;9867;48.094;11.478;2023-03-15T06:53:14;95157.97;;;0.45;100.00
19457;BME280;9867;48.094;11.478;2023-03-15T06:55:42;95174.94;;;0.52;100.00
19457;BME280;9867;48.094;11.478;2023-03-15T06:58:08;95166.44;;;0.63;100.00
19457;BME280;9867;48.094;11.478;2023-03-15T07:00:35;95173.63;;;0.58;100.00
19457;BME280;9867;48.094;11.478;2023-03-15T07:03:01;95158.81;;;0.92;100.00
19457;BME280;9867;48.094;11.478;2023-03-15T07:05:28;95170.69;;;1.19;100.00
19457;BME280;9867;48.094;11.478;2023-03-15T07:07:54;95172.47;;;0.99;100.00
19457;BME280;9867;48.094;11.478;2023-03-15T07:10:21;95184.19;;;0.90;100.00
19457;BME280;9867;48.094;11.478;2023-03-15T07:12:48;95160.84;;;0.59;100.00
19457;BME280;9867;48.094;11.478;2023-03-15T07:15:14;95181.53;;;0.92;100.00
19457;BME280;9867;48.094;11.478;2023-03-15T07:17:43;95194.19;;;0.73;100.00
19457;BME280;9867;48.094;11.478;2023-03-15T07:20:10;95188.22;;;0.64;100.00
19457;BME280;9867;48.094;11.478;2023-03-15T07:22:37;95191.78;;;0.81;100.00
19457;BME280;9867;48.094;11.478;2023-03-15T07:25:04;95199.63;;;0.87;100.00
19457;BME280;9867;48.094;11.478;2023-03-15T07:27:32;95207.59;;;0.83;100.00
19457;BME280;9867;48.094;11.478;2023-03-15T07:29:59;95207.88;;;0.89;100.00
19457;BME280;9867;48.094;11.478;2023-03-15T07:32:26;95197.59;;;1.00;100.00
19457;BME280;9867;48.094;11.478;2023-03-15T07:34:52;95219.81;;;0.87;100.00
19457;BME280;9867;48.094;11.478;2023-03-15T07:37:23;95206.66;;;0.93;100.00
19457;BME280;9867;48.094;11.478;2023-03-15T07:39:49;95209.97;;;0.94;100.00
19457;BME280;9867;48.094;11.478;2023-03-15T07:42:15;95208.16;;;1.23;100.00
19457;BME280;9867;48.094;11.478;2023-03-15T07:44:48;95222.53;;;1.23;100.00
19457;BME280;9867;48.094;11.478;2023-03-15T07:47:15;95205.78;;;1.22;100.00
19457;BME280;9867;48.094;11.478;2023-03-15T07:49:41;95212.19;;;1.16;100.00
19457;BME280;9867;48.094;11.478;2023-03-15T07:52:08;95221.06;;;1.30;100.00
19457;BME280;9867;48.094;11.478;2023-03-15T07:54:34;95215.22;;;1.20;100.00
19457;BME280;9867;48.094;11.478;2023-03-15T07:57:01;95224.50;;;1.29;100.00
19457;BME280;9867;48.094;11.478;2023-03-15T07:59:28;95211.19;;;1.36;100.00
19457;BME280;9867;48.094;11.478;2023-03-15T08:01:54;95228.00;;;1.65;100.00
19457;BME280;9867;48.094;11.478;2023-03-15T08:04:22;95221.91;;;1.58;100.00
19457;BME280;9867;48.094;11.478;2023-03-15T08:06:48;95230.97;;;1.51;100.00
19457;BME280;9867;48.094;11.478;2023-03-15T08:09:14;95207.28;;;1.52;100.00
19457;BME280;9867;48.094;11.478;2023-03-15T08:11:41;95204.28;;;1.66;100.00
19457;BME280;9867;48.094;11.478;2023-03-15T08:14:10;95209.34;;;1.93;100.00
19457;BME280;9867;48.094;11.478;2023-03-15T08:16:36;95204.56;;;1.90;100.00
19457;BME280;9867;48.094;11.478;2023-03-15T08:19:03;95222.88;;;1.75;100.00
19457;BME280;9867;48.094;11.478;2023-03-15T08:21:30;95218.78;;;1.91;100.00
19457;BME280;9867;48.094;11.478;2023-03-15T08:23:58;95232.09;;;1.93;100.00
19457;BME280;9867;48.094;11.478;2023-03-15T08:26:25;95219.19;;;1.96;100.00
19457;BME280;9867;48.094;11.478;2023-03-15T08:28:51;95220.97;;;2.49;100.00
19457;BME280;9867;48.094;11.478;2023-03-15T08:31:17;95216.63;;;2.42;100.00
19457;BME280;9867;48.094;11.478;2023-03-15T08:33:44;95229.78;;;2.81;100.00
19457;BME280;9867;48.094;11.478;2023-03-15T08:36:11;95231.28;;;2.38;100.00
19457;BME280;9867;48.094;11.478;2023-03-15T08:38:38;95235.66;;;2.28;100.00
19457;BME280;9867;48.094;11.478;2023-03-15T08:41:05;95229.66;;;2.82;100.00
19457;BME280;9867;48.094;11.478;2023-03-15T08:43:31;95229.34;;;2.67;100.00
19457;BME280;9867;48.094;11.478;2023-03-15T08:45:57;95223.47;;;2.85;100.00
19457;BME280;9867;48.094;11.478;2023-03-15T08:48:27;95226.94;;;3.27;100.00
19457;BME280;9867;48.094;11.478;2023-03-15T08:50:54;95233.31;;;2.88;100.00
19457;BME280;9867;48.094;11.478;2023-03-15T08:53:20;95220.44;;;3.51;100.00
19457;BME280;9867;48.094;11.478;2023-03-15T08:55:47;95235.38;;;3.36;100.00
19457;BME280;9867;48.094;11.478;2023-03-15T08:58:14;95226.78;;;3.03;100.00
19457;BME280;9867;48.094;11.478;2023-03-15T09:00:41;95227.91;;;3.34;100.00
19457;BME280;9867;48.094;11.478;2023-03-15T09:03:07;95229.28;;;3.55;100.00
19457;BME280;9867;48.094;11.478;2023-03-15T09:05:34;95211.97;;;3.42;100.00
19457;BME280;9867;48.094;11.478;2023-03-15T09:08:01;95219.94;;;3.89;100.00
19457;BME280;9867;48.094;11.478;2023-03-15T09:10:27;95232.63;;;4.39;100.00
19457;BME280;9867;48.094;11.478;2023-03-15T09:12:54;95222.13;;;4.34;100.00
19457;BME280;9867;48.094;11.478;2023-03-15T09:15:21;95236.91;;;4.39;100.00
19457;BME280;9867;48.094;11.478;2023-03-15T09:17:47;95239.75;;;3.78;100.00
19457;BME280;9867;48.094;11.478;2023-03-15T09:20:15;95226.44;;;3.50;100.00
19457;BME280;9867;48.094;11.478;2023-03-15T09:22:49;95217.00;;;3.68;100.00
19457;BME280;9867;48.094;11.478;2023-03-15T09:25:15;95219.63;;;3.24;100.00
19457;BME280;9867;48.094;11.478;2023-03-15T09:27:42;95227.56;;;3.89;100.00
19457;BME280;9867;48.094;11.478;2023-03-15T09:30:10;95233.41;;;4.32;100.00
19457;BME280;9867;48.094;11.478;2023-03-15T09:32:38;95236.25;;;4.21;100.00
19457;BME280;9867;48.094;11.478;2023-03-15T09:35:07;95241.22;;;3.54;100.00
19457;BME280;9867;48.094;11.478;2023-03-15T09:37:34;95237.44;;;4.00;100.00
19457;BME280;9867;48.094;11.478;2023-03-15T09:40:00;95238.94;;;4.19;100.00
19457;BME280;9867;48.094;11.478;2023-03-15T09:42:34;95242.31;;;4.52;100.00
19457;BME280;9867;48.094;11.478;2023-03-15T09:45:14;95227.72;;;3.88;100.00
19457;BME280;9867;48.094;11.478;2023-03-15T09:47:50;95234.84;;;4.34;100.00
19457;BME280;9867;48.094;11.478;2023-03-15T09:50:21;95242.50;;;3.92;100.00
19457;BME280;9867;48.094;11.478;2023-03-15T09:52:53;95244.69;;;4.37;100.00
19457;BME280;9867;48.094;11.478;2023-03-15T09:55:24;95245.59;;;4.20;100.00
19457;BME280;9867;48.094;11.478;2023-03-15T09:57:54;95245.66;;;3.60;100.00
19457;BME280;9867;48.094;11.478;2023-03-15T10:00:29;95250.75;;;3.34;100.00
19457;BME280;9867;48.094;11.478;2023-03-15T10:03:01;95254.25;;;3.16;100.00
19457;BME280;9867;48.094;11.478;2023-03-15T10:05:36;95270.03;;;3.27;100.00
19457;BME280;9867;48.094;11.478;2023-03-15T10:08:09;95271.03;;;3.34;100.00
19457;BME280;9867;48.094;11.478;2023-03-15T10:10:39;95272.13;;;3.58;100.00
19457;BME280;9867;48.094;11.478;2023-03-15T10:13:19;95272.44;;;3.89;100.00
19457;BME280;9867;48.094;11.478;2023-03-15T10:16:00;95273.22;;;4.23;100.00
19457;BME280;9867;48.094;11.478;2023-03-15T10:18:41;95276.94;;;4.03;100.00
19457;BME280;9867;48.094;11.478;2023-03-15T10:21:22;95281.69;;;3.98;100.00
19457;BME280;9867;48.094;11.478;2023-03-15T10:23:53;95268.06;;;4.07;100.00
19457;BME280;9867;48.094;11.478;2023-03-15T10:26:24;95251.63;;;4.19;100.00
19457;BME280;9867;48.094;11.478;2023-03-15T10:28:52;95264.41;;;4.60;100.00
19457;BME280;9867;48.094;11.478;2023-03-15T10:31:22;95251.41;;;5.03;100.00
19457;BME280;9867;48.094;11.478;2023-03-15T10:34:09;95263.03;;;5.14;100.00
19457;BME280;9867;48.094;11.478;2023-03-15T10:36:36;95259.69;;;4.89;100.00
19457;BME280;9867;48.094;11.478;2023-03-15T10:39:05;95263.28;;;4.54;100.00
19457;BME280;9867;48.094;11.478;2023-03-15T10:41:39;95258.06;;;4.96;100.00
19457;BME280;9867;48.094;11.478;2023-03-15T10:44:11;95248.09;;;5.19;100.00
19457;BME280;9867;48.094;11.478;2023-03-15T10:46:38;95258.09;;;5.12;100.00
19457;BME280;9867;48.094;11.478;2023-03-15T10:49:09;95248.88;;;5.20;100.00
19457;BME280;9867;48.094;11.478;2023-03-15T10:51:39;95252.16;;;5.53;100.00
19457;BME280;9867;48.094;11.478;2023-03-15T10:54:13;95241.91;;;5.85;100.00
19457;BME280;9867;48.094;11.478;2023-03-15T10:56:45;95231.88;;;5.83;100.00
19457;BME280;9867;48.094;11.478;2023-03-15T10:59:16;95256.69;;;5.81;100.00
19457;BME280;9867;48.094;11.478;2023-03-15T11:01:45;95244.50;;;5.61;100.00
19457;BME280;9867;48.094;11.478;2023-03-15T11:04:15;95249.84;;;5.10;78.98
19457;BME280;9867;48.094;11.478;2023-03-15T11:06:48;95249.66;;;5.28;85.47
19457;BME280;9867;48.094;11.478;2023-03-15T11:09:17;95256.19;;;4.98;88.29
19457;BME280;9867;48.094;11.478;2023-03-15T11:11:52;95260.16;;;4.85;80.97
19457;BME280;9867;48.094;11.478;2023-03-15T11:14:19;95250.63;;;4.95;94.64
19457;BME280;9867;48.094;11.478;2023-03-15T11:16:48;95246.66;;;5.08;92.12
19457;BME280;9867;48.094;11.478;2023-03-15T11:19:17;95235.38;;;5.19;95.15
19457;BME280;9867;48.094;11.478;2023-03-15T11:21:43;95245.38;;;5.12;97.06
19457;BME280;9867;48.094;11.478;2023-03-15T11:24:22;95250.31;;;4.90;93.90
19457;BME280;9867;48.094;11.478;2023-03-15T11:26:51;95256.03;;;4.84;100.00
19457;BME280;9867;48.094;11.478;2023-03-15T11:29:25;95244.72;;;4.54;93.17
19457;BME280;9867;48.094;11.478;2023-03-15T11:31:54;95251.09;;;4.74;87.49
19457;BME280;9867;48.094;11.478;2023-03-15T11:34:28;95239.81;;;5.09;68.38
19457;BME280;9867;48.094;11.478;2023-03-15T11:37:03;95239.63;;;5.27;67.13
19457;BME280;9867;48.094;11.478;2023-03-15T11:39:38;95229.97;;;5.86;65.99
19457;BME280;9867;48.094;11.478;2023-03-15T11:42:15;95236.28;;;6.06;71.60
19457;BME280;9867;48.094;11.478;2023-03-15T11:44:46;95239.50;;;5.92;63.28
19457;BME280;9867;48.094;11.478;2023-03-15T11:47:22;95247.09;;;5.20;61.68
19457;BME280;9867;48.094;11.478;2023-03-15T11:49:52;95220.34;;;5.57;65.55
19457;BME280;9867;48.094;11.478;2023-03-15T11:52:22;95210.97;;;5.49;60.99
19457;BME280;9867;48.094;11.478;2023-03-15T11:54:51;95231.56;;;5.87;63.04
19457;BME280;9867;48.094;11.478;2023-03-15T11:57:43;95219.59;;;5.95;68.64
19457;BME280;9867;48.094;11.478;2023-03-15T12:00:17;95212.81;;;5.71;60.70
19457;BME280;9867;48.094;11.478;2023-03-15T12:02:48;95215.72;;;5.60;61.75
19457;BME280;9867;48.094;11.478;2023-03-15T12:05:40;95226.66;;;5.77;61.02
19457;BME280;9867;48.094;11.478;2023-03-15T12:08:16;95225.94;;;5.44;64.98
19457;BME280;9867;48.094;11.478;2023-03-15T12:10:45;95211.03;;;5.41;64.02
19457;BME280;9867;48.094;11.478;2023-03-15T12:13:21;95209.13;;;5.27;66.73
19457;BME280;9867;48.094;11.478;2023-03-15T12:15:49;95201.81;;;5.24;81.42
19457;BME280;9867;48.094;11.478;2023-03-15T12:18:29;95202.09;;;5.45;73.97
19457;BME280;9867;48.094;11.478;2023-03-15T12:21:14;95194.72;;;5.66;70.83
19457;BME280;9867;48.094;11.478;2023-03-15T12:23:46;95187.25;;;5.65;63.99
19457;BME280;9867;48.094;11.478;2023-03-15T12:26:37;95207.09;;;5.06;66.40
19457;BME280;9867;48.094;11.478;2023-03-15T12:29:11;95193.69;;;5.36;59.06
19457;BME280;9867;48.094;11.478;2023-03-15T12:31:43;95175.88;;;5.83;61.21
19457;BME280;9867;48.094;11.478;2023-03-15T12:34:13;95177.75;;;5.98;62.28
19457;BME280;9867;48.094;11.478;2023-03-15T12:36:41;95169.56;;;6.10;56.53
19457;BME280;9867;48.094;11.478;2023-03-15T12:39:33;95175.16;;;6.60;58.02
19457;BME280;9867;48.094;11.478;2023-03-15T12:42:05;95185.22;;;6.53;53.86
19457;BME280;9867;48.094;11.478;2023-03-15T12:44:40;95172.88;;;7.02;54.80
19457;BME280;9867;48.094;11.478;2023-03-15T12:47:07;95166.66;;;7.49;55.12
19457;BME280;9867;48.094;11.478;2023-03-15T12:49:37;95172.00;;;6.72;51.82
19457;BME280;9867;48.094;11.478;2023-03-15T12:52:11;95162.50;;;6.66;55.36
19457;BME280;9867;48.094;11.478;2023-03-15T12:54:42;95168.09;;;6.39;52.31
19457;BME280;9867;48.094;11.478;2023-03-15T12:57:11;95173.75;;;6.72;53.46
19457;BME280;9867;48.094;11.478;2023-03-15T12:59:47;95170.38;;;6.57;54.10
19457;BME280;9867;48.094;11.478;2023-03-15T13:02:24;95174.69;;;6.33;53.00
19457;BME280;9867;48.094;11.478;2023-03-15T13:05:23;95177.16;;;6.41;55.15
19457;BME280;9867;48.094;11.478;2023-03-15T13:07:55;95176.81;;;6.22;59.69
19457;BME280;9867;48.094;11.478;2023-03-15T13:10:36;95184.00;;;6.18;57.03
19457;BME280;9867;48.094;11.478;2023-03-15T13:13:09;95175.03;;;5.99;57.38
19457;BME280;9867;48.094;11.478;2023-03-15T13:15:43;95185.75;;;6.18;62.46
19457;BME280;9867;48.094;11.478;2023-03-15T13:18:17;95183.97;;;6.26;61.85
19457;BME280;9867;48.094;11.478;2023-03-15T13:20:54;95177.06;;;6.35;62.10
19457;BME280;9867;48.094;11.478;2023-03-15T13:23:26;95194.00;;;6.20;60.42
19457;BME280;9867;48.094;11.478;2023-03-15T13:26:02;95184.72;;;6.04;59.36